TimeEDT,TemperatureF,Dew PointF,Humidity,Sea Level PressureIn,VisibilityMPH,Wind Direction,Wind SpeedMPH,Gust SpeedMPH,PrecipitationIn,Events,Conditions,WindDirDegrees,DateUTC
12:53 AM,50.0,39.0,66,29.68,10.0,SE,4.6,-,N/A,,Overcast,140,2012-10-19 04:53:00
1:53 AM,50.0,39.0,66,29.66,10.0,SE,3.5,-,N/A,,Mostly Cloudy,130,2012-10-19 05:53:00
2:53 AM,50.0,39.9,68,29.65,10.0,SE,5.8,-,N/A,,Mostly Cloudy,130,2012-10-19 06:53:00
3:53 AM,50.0,43.0,77,29.65,10.0,SE,3.5,-,N/A,,Overcast,140,2012-10-19 07:53:00
4:53 AM,50.0,45.0,83,29.63,10.0,SSE,4.6,-,N/A,,Overcast,160,2012-10-19 08:53:00
5:53 AM,52.0,46.0,80,29.62,10.0,SSE,9.2,-,N/A,,Overcast,150,2012-10-19 09:53:00
6:53 AM,53.1,45.0,74,29.62,10.0,SSE,9.2,-,N/A,,Overcast,160,2012-10-19 10:53:00
7:53 AM,53.1,45.0,74,29.62,10.0,South,6.9,-,N/A,,Overcast,170,2012-10-19 11:53:00
8:53 AM,53.1,44.1,71,29.62,10.0,South,9.2,-,N/A,,Overcast,170,2012-10-19 12:53:00
9:53 AM,53.1,45.0,74,29.62,10.0,South,11.5,-,N/A,,Overcast,180,2012-10-19 13:53:00
10:53 AM,53.1,43.0,69,29.62,10.0,South,9.2,-,N/A,,Overcast,170,2012-10-19 14:53:00
11:53 AM,54.0,43.0,66,29.62,10.0,South,12.7,-,N/A,,Overcast,170,2012-10-19 15:53:00
12:53 PM,55.9,39.9,55,29.61,10.0,South,11.5,-,0.00,,Mostly Cloudy,190,2012-10-19 16:53:00
1:53 PM,55.9,39.0,53,29.58,10.0,South,12.7,19.6,N/A,,Mostly Cloudy,190,2012-10-19 17:53:00
2:53 PM,57.0,39.9,53,29.57,10.0,South,9.2,-,N/A,,Mostly Cloudy,170,2012-10-19 18:53:00
3:53 PM,55.9,39.0,53,29.57,10.0,SSE,10.4,-,N/A,,Mostly Cloudy,160,2012-10-19 19:53:00
4:53 PM,52.0,43.0,71,29.59,10.0,SW,11.5,-,0.00,Rain,Light Rain,220,2012-10-19 20:53:00
5:53 PM,50.0,45.0,83,29.62,10.0,South,8.1,-,0.02,Rain,Light Rain,180,2012-10-19 21:53:00
6:53 PM,48.9,46.0,90,29.62,10.0,South,8.1,-,0.02,Rain,Light Rain,190,2012-10-19 22:53:00
7:53 PM,48.0,44.1,86,29.62,10.0,SSW,9.2,-,0.00,Rain,Light Rain,210,2012-10-19 23:53:00
8:53 PM,46.9,44.1,90,29.62,10.0,SW,8.1,-,0.01,Rain,Light Rain,220,2012-10-20 00:53:00
9:10 PM,46.4,44.6,93,29.61,10.0,SW,6.9,-,0.00,Rain,Light Rain,220,2012-10-20 01:10:00
9:43 PM,46.4,44.6,93,29.61,7.0,SW,5.8,-,0.01,Rain,Light Rain,230,2012-10-20 01:43:00
9:53 PM,46.9,44.1,90,29.62,7.0,SSW,9.2,-,0.02,Rain,Light Rain,210,2012-10-20 01:53:00
10:28 PM,46.4,44.6,93,29.60,10.0,SSW,4.6,-,0.02,Rain,Light Rain,210,2012-10-20 02:28:00
10:43 PM,46.4,44.6,93,29.60,10.0,SSW,3.5,-,0.02,Rain,Light Rain,210,2012-10-20 02:43:00
10:53 PM,46.0,44.1,93,29.61,10.0,SSW,6.9,-,0.02,Rain,Light Rain,210,2012-10-20 02:53:00
11:00 PM,46.4,42.8,87,29.60,10.0,SSW,6.9,-,0.00,,Overcast,210,2012-10-20 03:00:00
11:26 PM,46.4,42.8,87,29.60,10.0,SW,6.9,-,0.00,Rain,Light Rain,220,2012-10-20 03:26:00
11:53 PM,46.0,44.1,93,29.61,10.0,SW,9.2,-,0.00,Rain,Light Rain,220,2012-10-20 03:53:00